createdAt,value
2023-02-05T00:01:11.116Z,24.20
2023-02-05T00:03:39.586Z,23.80
2023-02-05T00:06:07.927Z,24.05
2023-02-05T00:08:36.871Z,23.23
2023-02-05T00:11:09.507Z,23.10
2023-02-05T00:13:45.378Z,21.95
2023-02-05T00:16:16.390Z,22.98
2023-02-05T00:18:45.472Z,22.48
2023-02-05T00:21:16.744Z,22.70
2023-02-05T00:23:45.655Z,21.90
2023-02-05T00:26:15.188Z,22.13
2023-02-05T00:31:36.133Z,22.92
2023-02-05T00:34:05.750Z,24.38
2023-02-05T00:36:35.115Z,22.38
2023-02-05T00:39:03.820Z,22.55
2023-02-05T00:41:33.238Z,23.25
2023-02-05T00:44:02.791Z,22.45
2023-02-05T00:46:36.126Z,24.10
2023-02-05T00:49:05.052Z,22.95
2023-02-05T00:51:33.661Z,23.90
2023-02-05T00:54:02.334Z,21.08
2023-02-05T00:56:31.108Z,19.08
2023-02-05T00:59:00.134Z,21.45
2023-02-05T01:01:29.962Z,20.63
2023-02-05T01:03:58.652Z,21.95
2023-02-05T01:06:27.074Z,21.90
2023-02-05T01:08:57.600Z,21.63
2023-02-05T01:11:29.845Z,20.67
2023-02-05T01:13:58.344Z,21.13
2023-02-05T01:16:26.549Z,21.13
2023-02-05T01:19:05.333Z,22.08
2023-02-05T01:21:33.741Z,20.83
2023-02-05T01:24:02.977Z,19.38
2023-02-05T01:29:23.828Z,19.40
2023-02-05T01:31:53.211Z,18.48
2023-02-05T01:34:26.743Z,19.35
2023-02-05T01:36:55.181Z,19.20
2023-02-05T01:39:23.944Z,19.27
2023-02-05T01:41:55.792Z,18.73
2023-02-05T01:44:26.294Z,19.02
2023-02-05T01:46:56.994Z,19.33
2023-02-05T01:49:35.423Z,19.20
2023-02-05T01:52:09.108Z,19.35
2023-02-05T01:54:43.105Z,18.33
2023-02-05T01:57:21.422Z,18.27
2023-02-05T01:59:51.800Z,18.27
2023-02-05T02:02:21.075Z,18.73
2023-02-05T02:04:56.154Z,17.60
2023-02-05T02:10:20.283Z,17.00
2023-02-05T02:12:51.986Z,15.60
2023-02-05T02:15:24.159Z,16.23
2023-02-05T02:20:54.028Z,15.95
2023-02-05T02:23:39.953Z,14.57
2023-02-05T02:26:45.006Z,15.07
2023-02-05T02:29:23.757Z,14.18
2023-02-05T02:31:58.917Z,12.80
2023-02-05T02:34:33.390Z,12.80
2023-02-05T02:37:08.714Z,11.77
2023-02-05T02:42:33.688Z,11.80
2023-02-05T02:45:12.665Z,10.48
2023-02-05T02:48:12.709Z,9.13
2023-02-05T02:54:53.998Z,7.80
2023-02-05T03:15:17.979Z,6.63
2023-02-05T03:40:47.467Z,4.78
2023-02-05T03:43:30.733Z,4.90
2023-02-05T03:49:07.463Z,4.78
2023-02-05T03:51:41.599Z,4.45
2023-02-05T03:54:17.674Z,3.97
2023-02-05T03:56:56.941Z,4.22
2023-02-05T03:59:27.300Z,4.18
2023-02-05T04:01:56.013Z,4.07
2023-02-05T04:04:24.454Z,4.67
2023-02-05T04:06:55.022Z,5.10
2023-02-05T04:09:22.691Z,5.50
2023-02-05T04:11:50.797Z,4.68
2023-02-05T04:14:18.598Z,4.55
2023-02-05T04:16:47.692Z,4.50
2023-02-05T04:19:15.834Z,4.78
2023-02-05T04:21:43.530Z,4.97
2023-02-05T04:24:11.231Z,5.32
2023-02-05T04:26:39.461Z,5.15
2023-02-05T04:29:07.270Z,5.13
2023-02-05T04:31:35.101Z,5.40
2023-02-05T04:34:05.381Z,5.88
2023-02-05T04:36:33.067Z,5.13
2023-02-05T04:39:00.741Z,5.50
2023-02-05T04:41:29.466Z,5.35
2023-02-05T04:43:57.195Z,5.93
2023-02-05T04:46:24.875Z,6.22
2023-02-05T04:48:53.188Z,6.30
2023-02-05T04:51:22.270Z,6.50
2023-02-05T04:53:50.004Z,6.53
2023-02-05T04:56:19.177Z,6.70
2023-02-05T04:58:47.347Z,6.97
2023-02-05T05:01:16.910Z,7.35
2023-02-05T05:03:45.767Z,6.80
2023-02-05T05:06:13.858Z,7.67
2023-02-05T05:08:43.330Z,7.85
2023-02-05T05:11:13.323Z,7.85
2023-02-05T05:13:41.285Z,8.48
2023-02-05T05:16:10.727Z,8.23
2023-02-05T05:18:39.961Z,8.70
2023-02-05T05:21:08.545Z,9.55
2023-02-05T05:23:37.014Z,9.30
2023-02-05T05:26:08.308Z,9.70
2023-02-05T05:28:36.952Z,10.48
2023-02-05T05:31:10.523Z,10.68
2023-02-05T05:33:38.727Z,10.55
2023-02-05T05:36:08.141Z,11.40
2023-02-05T05:38:36.661Z,11.20
2023-02-05T05:41:22.378Z,10.40
2023-02-05T05:43:53.278Z,11.68
2023-02-05T05:46:23.713Z,11.88
2023-02-05T05:48:52.239Z,12.85
2023-02-05T05:51:21.644Z,13.15
2023-02-05T05:53:49.914Z,12.00
2023-02-05T05:56:18.523Z,12.43
2023-02-05T05:58:47.663Z,12.57
2023-02-05T06:01:19.624Z,12.27
2023-02-05T06:03:47.395Z,11.93
2023-02-05T06:06:15.709Z,13.20
2023-02-05T06:08:43.511Z,12.77
2023-02-05T06:11:11.344Z,12.88
2023-02-05T06:13:39.606Z,13.45
2023-02-05T06:16:08.192Z,13.60
2023-02-05T06:18:37.257Z,14.82
2023-02-05T06:21:06.399Z,13.23
2023-02-05T06:23:34.288Z,14.07
2023-02-05T06:26:02.069Z,14.73
2023-02-05T06:28:30.309Z,13.68
2023-02-05T06:30:58.185Z,15.50
2023-02-05T06:33:26.002Z,15.57
2023-02-05T06:35:55.751Z,15.98
2023-02-05T06:40:51.335Z,13.65
2023-02-05T06:43:19.501Z,14.10
2023-02-05T06:45:47.201Z,11.57
2023-02-05T06:48:14.971Z,13.40
2023-02-05T06:50:43.201Z,12.35
2023-02-05T06:53:12.315Z,10.18
2023-02-05T06:55:40.204Z,7.35
2023-02-05T06:58:08.891Z,6.55
2023-02-05T07:00:36.707Z,4.85
2023-02-05T07:03:04.817Z,3.60
2023-02-05T07:08:24.401Z,3.33
2023-02-05T07:10:52.664Z,2.90
2023-02-05T07:13:20.886Z,3.38
2023-02-05T07:15:49.739Z,3.65
2023-02-05T07:18:17.574Z,2.83
2023-02-05T07:20:45.865Z,2.63
2023-02-05T07:23:13.537Z,2.80
2023-02-05T07:25:42.685Z,2.95
2023-02-05T07:28:11.000Z,2.47
2023-02-05T07:30:38.943Z,2.38
2023-02-05T07:33:06.683Z,2.45
2023-02-05T07:35:38.618Z,2.03
2023-02-05T07:38:06.964Z,1.63
2023-02-05T07:40:34.674Z,1.85
2023-02-05T07:43:04.268Z,1.65
2023-02-05T07:45:32.268Z,1.60
2023-02-05T07:48:00.149Z,1.80
2023-02-05T07:50:28.568Z,1.60
2023-02-05T07:52:56.383Z,1.52
2023-02-05T07:55:24.155Z,1.70
2023-02-05T07:57:52.470Z,2.10
2023-02-05T08:00:22.033Z,1.58
2023-02-05T08:02:49.772Z,1.85
2023-02-05T08:05:18.056Z,1.80
2023-02-05T08:07:46.213Z,1.75
2023-02-05T08:10:14.919Z,1.95
2023-02-05T08:12:42.961Z,2.27
2023-02-05T08:15:11.447Z,2.10
2023-02-05T08:17:40.648Z,1.60
2023-02-05T08:20:09.994Z,2.20
2023-02-05T08:22:39.523Z,2.00
2023-02-05T08:25:09.288Z,2.47
2023-02-05T08:27:39.006Z,1.92
2023-02-05T08:32:36.056Z,2.15
2023-02-05T08:35:06.715Z,2.55
2023-02-05T08:37:34.536Z,2.40
2023-02-05T08:40:02.472Z,2.40
2023-02-05T08:42:30.806Z,3.28
2023-02-05T08:44:59.438Z,2.63
2023-02-05T08:47:27.378Z,2.45
2023-02-05T08:49:55.499Z,2.25
2023-02-05T08:52:24.778Z,2.58
2023-02-05T08:54:52.597Z,2.72
2023-02-05T08:57:20.675Z,3.00
2023-02-05T08:59:48.433Z,2.75
2023-02-05T09:02:16.463Z,3.50
2023-02-05T09:07:34.513Z,2.70
2023-02-05T09:10:02.986Z,3.35
2023-02-05T09:12:30.673Z,2.88
2023-02-05T09:14:58.530Z,2.92
2023-02-05T09:17:27.014Z,3.33
2023-02-05T09:19:54.873Z,2.67
2023-02-05T09:22:22.565Z,3.42
2023-02-05T09:24:52.428Z,3.28
2023-02-05T09:27:20.197Z,3.30
2023-02-05T09:29:47.935Z,2.97
2023-02-05T09:32:16.194Z,3.53
2023-02-05T09:34:44.011Z,3.33
2023-02-05T09:37:11.698Z,3.30
2023-02-05T09:42:37.855Z,3.00
2023-02-05T09:45:19.739Z,2.90
2023-02-05T09:48:00.780Z,3.13
2023-02-05T09:50:30.554Z,3.13
2023-02-05T09:53:02.649Z,3.35
2023-02-05T09:55:32.970Z,3.55
2023-02-05T09:58:09.137Z,3.25
2023-02-05T10:00:44.727Z,3.63
2023-02-05T10:03:23.051Z,3.28
2023-02-05T10:06:08.723Z,4.30
2023-02-05T10:08:47.647Z,3.13
2023-02-05T10:11:24.165Z,3.33
2023-02-05T10:14:05.472Z,4.07
2023-02-05T10:20:09.650Z,7.20
2023-02-05T10:22:47.779Z,3.88
2023-02-05T10:25:45.974Z,4.93
2023-02-05T10:28:30.409Z,3.60
2023-02-05T10:31:08.803Z,4.45
2023-02-05T10:33:47.750Z,4.13
2023-02-05T10:36:18.012Z,4.28
2023-02-05T10:38:47.481Z,3.92
2023-02-05T10:41:21.749Z,4.22
2023-02-05T10:43:54.474Z,4.72
2023-02-05T10:46:31.386Z,4.20
2023-02-05T10:49:05.727Z,4.18
2023-02-05T10:51:39.634Z,5.28
2023-02-05T10:54:19.494Z,3.83
2023-02-05T10:56:49.399Z,4.30
2023-02-05T10:59:23.596Z,4.10
2023-02-05T11:01:53.763Z,4.53
2023-02-05T11:04:32.660Z,4.68
2023-02-05T11:07:02.129Z,4.60
2023-02-05T11:09:33.217Z,4.07
2023-02-05T11:12:03.137Z,3.50
2023-02-05T11:14:35.372Z,3.38
2023-02-05T11:17:10.842Z,3.85
2023-02-05T11:19:39.472Z,3.65
2023-02-05T11:22:07.174Z,4.35
2023-02-05T11:24:39.826Z,4.18
2023-02-05T11:27:29.955Z,3.25
2023-02-05T11:30:01.405Z,4.28
2023-02-05T11:32:39.526Z,3.55
2023-02-05T11:35:19.705Z,4.50
2023-02-05T11:37:49.958Z,3.95
2023-02-05T11:40:22.926Z,4.20
2023-02-05T11:43:05.641Z,3.95
2023-02-05T11:45:36.265Z,4.60
2023-02-05T11:48:21.972Z,3.70
2023-02-05T11:50:50.462Z,4.15
2023-02-05T11:53:20.771Z,3.60
2023-02-05T11:55:55.261Z,4.07
2023-02-05T11:58:36.119Z,4.30
2023-02-05T12:01:07.946Z,4.13
2023-02-05T12:03:37.167Z,3.63
2023-02-05T12:06:16.010Z,4.60
2023-02-05T12:08:49.201Z,5.22
2023-02-05T12:11:56.025Z,6.15
2023-02-05T12:14:33.969Z,4.40
2023-02-05T12:17:17.694Z,5.93
2023-02-05T12:19:57.636Z,6.65
2023-02-05T12:22:56.586Z,4.53
2023-02-05T12:25:29.837Z,11.00
2023-02-05T12:28:10.348Z,8.00
2023-02-05T12:30:51.253Z,4.95
2023-02-05T12:33:35.690Z,4.50
2023-02-05T12:36:17.723Z,4.10
2023-02-05T12:38:55.110Z,5.13
2023-02-05T12:41:33.200Z,3.80
2023-02-05T12:44:13.181Z,5.38
2023-02-05T12:46:56.845Z,5.25
2023-02-05T12:49:41.772Z,4.68
2023-02-05T12:52:24.511Z,3.80
2023-02-05T12:55:02.702Z,4.43
2023-02-05T12:57:38.251Z,3.90
2023-02-05T13:00:13.647Z,4.25
2023-02-05T13:02:50.960Z,4.30
2023-02-05T13:05:22.896Z,4.43
2023-02-05T13:07:58.303Z,5.10
2023-02-05T13:10:35.540Z,5.13
2023-02-05T13:13:07.469Z,4.65
2023-02-05T13:15:41.120Z,3.35
2023-02-05T13:18:17.755Z,4.18
2023-02-05T13:21:04.698Z,3.88
2023-02-05T13:23:54.294Z,4.10
2023-02-05T13:29:17.199Z,4.13
2023-02-05T13:31:49.732Z,4.18
2023-02-05T13:34:18.636Z,4.00
2023-02-05T13:37:09.316Z,3.67
2023-02-05T13:39:53.776Z,3.53
2023-02-05T13:42:47.229Z,3.85
2023-02-05T13:45:50.394Z,3.67
2023-02-05T13:48:41.479Z,3.88
2023-02-05T13:51:38.140Z,3.85
2023-02-05T13:54:46.020Z,3.40
2023-02-05T13:57:38.112Z,3.58
2023-02-05T14:00:12.603Z,3.28
2023-02-05T14:02:44.253Z,4.65
2023-02-05T14:05:14.860Z,3.95
2023-02-05T14:07:46.635Z,4.38
2023-02-05T14:10:27.673Z,4.35
2023-02-05T14:13:12.053Z,4.07
2023-02-05T14:15:43.423Z,4.35
2023-02-05T14:18:13.314Z,4.80
2023-02-05T14:20:42.937Z,5.45
2023-02-05T14:26:11.639Z,3.92
2023-02-05T14:28:52.429Z,3.60
2023-02-05T14:35:02.053Z,4.28
2023-02-05T14:37:40.974Z,4.30
2023-02-05T14:40:23.905Z,4.25
2023-02-05T14:43:08.421Z,4.80
2023-02-05T14:45:44.859Z,3.90
2023-02-05T14:48:21.714Z,4.32
2023-02-05T14:51:02.249Z,3.70
2023-02-05T14:53:31.144Z,4.93
2023-02-05T14:55:59.991Z,8.05
2023-02-05T14:58:32.530Z,4.47
2023-02-05T15:01:42.620Z,6.70
2023-02-05T15:04:24.792Z,9.27
2023-02-05T15:06:54.395Z,5.28
2023-02-05T15:09:26.431Z,4.93
2023-02-05T15:12:16.966Z,4.93
2023-02-05T15:14:54.149Z,4.45
2023-02-05T15:17:58.151Z,3.85
2023-02-05T15:20:32.703Z,4.20
2023-02-05T15:23:17.801Z,4.78
2023-02-05T15:25:52.148Z,4.50
2023-02-05T15:28:27.114Z,4.97
2023-02-05T15:31:05.062Z,4.03
2023-02-05T15:33:44.063Z,5.10
2023-02-05T15:36:21.482Z,4.47
2023-02-05T15:38:59.530Z,4.40
2023-02-05T15:41:28.128Z,4.60
2023-02-05T15:44:02.749Z,4.40
2023-02-05T15:46:35.472Z,3.40
2023-02-05T15:49:06.768Z,3.65
2023-02-05T15:51:38.310Z,3.22
2023-02-05T15:54:07.436Z,3.55
2023-02-05T15:56:38.964Z,3.67
2023-02-05T15:59:13.528Z,4.05
2023-02-05T16:01:47.226Z,3.85
2023-02-05T16:04:21.571Z,4.32
2023-02-05T16:06:50.279Z,4.47
2023-02-05T16:09:19.569Z,6.15
2023-02-05T16:11:48.388Z,9.15
2023-02-05T16:14:19.832Z,4.60
2023-02-05T16:17:03.367Z,7.72
2023-02-05T16:19:37.171Z,6.93
2023-02-05T16:22:18.603Z,8.82
2023-02-05T16:24:50.399Z,7.25
2023-02-05T16:27:23.076Z,8.73
2023-02-05T16:29:56.159Z,5.90
2023-02-05T16:32:31.213Z,6.30
2023-02-05T16:35:05.397Z,7.15
2023-02-05T16:37:33.824Z,6.40
2023-02-05T16:40:06.281Z,7.80
2023-02-05T16:42:38.419Z,5.93
2023-02-05T16:45:20.121Z,6.35
2023-02-05T16:48:23.333Z,5.15
2023-02-05T16:50:57.537Z,4.47
2023-02-05T16:53:28.298Z,4.22
2023-02-05T16:55:59.858Z,3.72
2023-02-05T16:58:36.076Z,4.75
2023-02-05T17:01:06.311Z,4.15
2023-02-05T17:03:39.088Z,5.18
2023-02-05T17:06:15.437Z,5.28
2023-02-05T17:08:48.278Z,5.70
2023-02-05T17:11:38.339Z,4.25
2023-02-05T17:14:27.963Z,5.55
2023-02-05T17:19:28.973Z,6.20
2023-02-05T17:22:22.985Z,5.72
2023-02-05T17:24:52.273Z,6.78
2023-02-05T17:27:29.111Z,10.10
2023-02-05T17:30:00.327Z,23.00
2023-02-05T17:32:30.667Z,7.60
2023-02-05T17:34:59.997Z,7.38
2023-02-05T17:37:29.511Z,8.52
2023-02-05T17:39:58.336Z,6.28
2023-02-05T17:42:26.978Z,6.05
2023-02-05T17:44:56.052Z,4.78
2023-02-05T17:47:24.680Z,6.03
2023-02-05T17:49:52.781Z,5.93
2023-02-05T17:52:20.840Z,6.38
2023-02-05T17:54:50.989Z,6.35
2023-02-05T17:57:21.574Z,5.78
2023-02-05T17:59:50.048Z,5.38
2023-02-05T18:02:18.996Z,5.65
2023-02-05T18:04:47.381Z,6.32
2023-02-05T18:07:23.311Z,6.07
2023-02-05T18:09:52.891Z,6.45
2023-02-05T18:12:21.072Z,5.10
2023-02-05T18:14:49.771Z,7.20
2023-02-05T18:17:18.042Z,6.83
2023-02-05T18:19:46.141Z,7.47
2023-02-05T18:22:14.954Z,7.82
2023-02-05T18:24:43.248Z,6.50
2023-02-05T18:27:13.400Z,6.07
2023-02-05T18:29:43.777Z,5.97
2023-02-05T18:32:12.137Z,5.00
2023-02-05T18:34:40.248Z,5.35
2023-02-05T18:37:08.701Z,6.80
2023-02-05T18:39:36.730Z,6.38
2023-02-05T18:42:04.994Z,5.03
2023-02-05T18:44:35.978Z,7.43
2023-02-05T18:47:04.980Z,6.25
2023-02-05T18:49:33.252Z,6.90
2023-02-05T18:52:02.188Z,6.10
2023-02-05T18:54:30.422Z,8.35
2023-02-05T18:56:58.382Z,6.65
2023-02-05T18:59:26.692Z,6.70
2023-02-05T19:01:56.828Z,6.38
2023-02-05T19:04:25.732Z,5.72
2023-02-05T19:06:55.162Z,4.88
2023-02-05T19:09:25.769Z,13.10
2023-02-05T19:11:55.786Z,9.70
2023-02-05T19:14:25.606Z,9.35
2023-02-05T19:16:55.566Z,6.63
2023-02-05T19:19:25.954Z,9.13
2023-02-05T19:21:54.823Z,7.13
2023-02-05T19:24:23.074Z,8.73
2023-02-05T19:26:52.119Z,10.68
2023-02-05T19:29:21.532Z,7.38
2023-02-05T19:31:50.462Z,9.50
2023-02-05T19:34:22.497Z,9.75
2023-02-05T19:36:50.862Z,14.73
2023-02-05T19:39:18.987Z,8.25
2023-02-05T19:41:48.511Z,10.15
2023-02-05T19:44:16.627Z,14.25
2023-02-05T19:46:49.001Z,15.00
2023-02-05T19:49:20.240Z,8.52
2023-02-05T19:51:50.181Z,7.75
2023-02-05T19:54:21.609Z,10.65
2023-02-05T19:56:51.869Z,8.73
2023-02-05T19:59:21.737Z,8.98
2023-02-05T20:01:53.356Z,10.07
2023-02-05T20:04:30.371Z,6.60
2023-02-05T20:07:02.457Z,7.70
2023-02-05T20:09:32.253Z,8.90
2023-02-05T20:12:00.176Z,7.03
2023-02-05T20:14:30.151Z,7.45
2023-02-05T20:16:58.398Z,8.25
2023-02-05T20:19:47.019Z,7.00
2023-02-05T20:22:15.365Z,7.22
2023-02-05T20:24:43.552Z,7.35
2023-02-05T20:27:11.504Z,8.77
2023-02-05T20:32:38.930Z,8.88
2023-02-05T20:35:09.501Z,7.20
2023-02-05T20:37:37.781Z,7.18
2023-02-05T20:40:06.148Z,8.27
2023-02-05T20:42:34.504Z,8.18
2023-02-05T20:45:02.768Z,9.52
2023-02-05T20:47:31.440Z,7.93
2023-02-05T20:49:59.610Z,7.32
2023-02-05T20:52:35.567Z,8.32
2023-02-05T20:55:05.149Z,8.68
2023-02-05T20:57:33.130Z,12.43
2023-02-05T21:00:01.772Z,8.80
2023-02-05T21:02:30.469Z,5.93
2023-02-05T21:05:01.171Z,7.35
2023-02-05T21:07:31.469Z,8.75
2023-02-05T21:10:02.069Z,7.13
2023-02-05T21:15:18.316Z,8.02
2023-02-05T21:17:46.779Z,6.45
2023-02-05T21:20:14.777Z,6.25
2023-02-05T21:23:27.017Z,6.43
2023-02-05T21:25:56.721Z,6.00
2023-02-05T21:31:04.314Z,6.28
2023-02-05T21:33:35.355Z,5.80
2023-02-05T21:36:05.267Z,6.47
2023-02-05T21:38:40.069Z,6.32
2023-02-05T21:47:07.120Z,6.22
2023-02-05T21:49:35.002Z,6.13
2023-02-05T21:52:02.753Z,7.03
2023-02-05T21:54:30.529Z,6.95
2023-02-05T21:56:58.664Z,6.47
2023-02-05T21:59:28.058Z,6.95
2023-02-05T22:01:55.940Z,6.75
2023-02-05T22:04:23.949Z,6.93
2023-02-05T22:06:52.069Z,5.63
2023-02-05T22:09:20.556Z,6.13
2023-02-05T22:11:50.855Z,6.22
2023-02-05T22:14:18.595Z,6.00
2023-02-05T22:16:47.897Z,6.57
2023-02-05T22:19:16.150Z,6.45
2023-02-05T22:21:44.214Z,7.20
2023-02-05T22:24:14.875Z,6.93
2023-02-05T22:26:43.291Z,6.18
2023-02-05T22:29:15.231Z,6.50
2023-02-05T22:31:44.694Z,6.07
2023-02-05T22:34:13.975Z,6.25
2023-02-05T22:36:41.685Z,8.30
2023-02-05T22:39:09.912Z,7.68
2023-02-05T22:41:39.462Z,6.65
2023-02-05T22:44:08.908Z,7.88
2023-02-05T22:46:40.770Z,7.88
2023-02-05T22:49:08.562Z,8.48
2023-02-05T22:51:39.455Z,7.43
2023-02-05T22:54:08.820Z,6.63
2023-02-05T22:56:36.818Z,8.23
2023-02-05T22:59:04.575Z,7.55
2023-02-05T23:01:35.067Z,6.78
2023-02-05T23:04:05.627Z,8.52
2023-02-05T23:06:36.256Z,8.20
2023-02-05T23:09:07.916Z,13.70
2023-02-05T23:11:36.832Z,12.02
2023-02-05T23:14:06.422Z,9.82
2023-02-05T23:16:35.871Z,7.97
2023-02-05T23:19:06.169Z,9.57
2023-02-05T23:21:35.506Z,6.60
2023-02-05T23:24:03.603Z,12.73
2023-02-05T23:26:37.675Z,7.55
2023-02-05T23:29:05.654Z,18.55
2023-02-05T23:31:33.754Z,10.32
2023-02-05T23:34:02.770Z,11.57
2023-02-05T23:36:30.912Z,15.90
2023-02-05T23:38:58.882Z,13.45
2023-02-05T23:41:54.904Z,7.72
2023-02-05T23:44:24.335Z,10.70
2023-02-05T23:46:52.606Z,7.15
2023-02-05T23:49:22.474Z,10.38
2023-02-05T23:51:51.032Z,19.58
2023-02-05T23:54:19.050Z,22.88
2023-02-05T23:56:47.531Z,11.57
2023-02-05T23:59:15.408Z,23.15
